N8223N KMRH-KFFA
Flight info
| Callsign | N8223N |
|---|---|
| Flight time | 1h 12m |
| Altitude | 3500 |
| Route | KHSE |
| Aircraft | C172/L-VGD/C |
Departure
| Time | 2026-05-07 23:04 |
|---|---|
| Airport | Michael J. Smith Field (KMRH) |
Arrival
| Time | 2026-05-08 00:16 |
|---|---|
| Airport | First Flight Airport (KFFA) |
| Time | Latitude | Longitude | Altitude | Speed | Heading |
|---|---|---|---|---|---|
| 2026-05-07 22:49 | 34.73415 | -76.65542 | 8 ft | 0 kts | 90° |
| 2026-05-07 22:58 | 34.73415 | -76.65537 | 8 ft | 0 kts | 89° |
| 2026-05-07 22:58 | 34.73423 | -76.65524 | 8 ft | 5 kts | 3° |
| 2026-05-07 22:58 | 34.73467 | -76.65525 | 8 ft | 8 kts | 356° |
| 2026-05-07 22:59 | 34.73529 | -76.65527 | 8 ft | 7 kts | 1° |
| 2026-05-07 22:59 | 34.73574 | -76.65525 | 8 ft | 5 kts | 2° |
| 2026-05-07 22:59 | 34.73617 | -76.65526 | 8 ft | 6 kts | 356° |
| 2026-05-07 22:59 | 34.73664 | -76.65530 | 8 ft | 7 kts | 355° |
| 2026-05-07 23:00 | 34.73696 | -76.65490 | 8 ft | 7 kts | 67° |
| 2026-05-07 23:00 | 34.73718 | -76.65427 | 7 ft | 8 kts | 67° |
| 2026-05-07 23:00 | 34.73739 | -76.65364 | 8 ft | 7 kts | 70° |
| 2026-05-07 23:00 | 34.73766 | -76.65338 | 8 ft | 0 kts | 342° |
| 2026-05-07 23:02 | 34.73769 | -76.65339 | 8 ft | 1 kts | 340° |
| 2026-05-07 23:03 | 34.73796 | -76.65353 | 8 ft | 5 kts | 336° |
| 2026-05-07 23:03 | 34.73822 | -76.65381 | 8 ft | 6 kts | 254° |
| 2026-05-07 23:03 | 34.73756 | -76.65578 | 8 ft | 49 kts | 250° |
| 2026-05-07 23:03 | 34.73591 | -76.66073 | 106 ft | 64 kts | 236° |
| 2026-05-07 23:04 | 34.73383 | -76.66621 | 178 ft | 79 kts | 238° |
| 2026-05-07 23:04 | 34.73133 | -76.67255 | 313 ft | 84 kts | 239° |
| 2026-05-07 23:04 | 34.72896 | -76.67910 | 492 ft | 85 kts | 243° |
| 2026-05-07 23:04 | 34.72669 | -76.68543 | 708 ft | 80 kts | 238° |
| 2026-05-07 23:05 | 34.72413 | -76.69157 | 855 ft | 83 kts | 237° |
| 2026-05-07 23:05 | 34.72100 | -76.69764 | 1030 ft | 83 kts | 224° |
| 2026-05-07 23:05 | 34.71637 | -76.70180 | 1192 ft | 84 kts | 200° |
| 2026-05-07 23:05 | 34.71067 | -76.70340 | 1365 ft | 84 kts | 181° |
| 2026-05-07 23:06 | 34.70497 | -76.70244 | 1527 ft | 84 kts | 156° |
| 2026-05-07 23:06 | 34.69992 | -76.69875 | 1691 ft | 85 kts | 137° |
| 2026-05-07 23:06 | 34.69583 | -76.69353 | 1853 ft | 85 kts | 127° |
| 2026-05-07 23:06 | 34.69223 | -76.68780 | 2006 ft | 85 kts | 121° |
| 2026-05-07 23:07 | 34.68897 | -76.68186 | 2154 ft | 86 kts | 120° |
| 2026-05-07 23:07 | 34.68588 | -76.67558 | 2313 ft | 86 kts | 117° |
| 2026-05-07 23:07 | 34.68299 | -76.66924 | 2459 ft | 86 kts | 116° |
| 2026-05-07 23:07 | 34.68037 | -76.66260 | 2612 ft | 87 kts | 110° |
| 2026-05-07 23:08 | 34.67807 | -76.65590 | 2753 ft | 88 kts | 110° |
| 2026-05-07 23:08 | 34.67542 | -76.64824 | 2734 ft | 105 kts | 112° |
| 2026-05-07 23:08 | 34.67239 | -76.63973 | 2728 ft | 114 kts | 113° |
| 2026-05-07 23:08 | 34.66916 | -76.63070 | 2724 ft | 118 kts | 114° |
| 2026-05-07 23:09 | 34.66593 | -76.62166 | 2721 ft | 115 kts | 113° |
| 2026-05-07 23:09 | 34.66291 | -76.61268 | 2720 ft | 114 kts | 107° |
| 2026-05-07 23:09 | 34.66202 | -76.60314 | 2722 ft | 113 kts | 89° |
| 2026-05-07 23:09 | 34.66242 | -76.59364 | 2721 ft | 112 kts | 86° |
| 2026-05-07 23:10 | 34.66308 | -76.58418 | 2722 ft | 111 kts | 83° |
| 2026-05-07 23:10 | 34.66399 | -76.57493 | 2721 ft | 111 kts | 83° |
| 2026-05-07 23:10 | 34.66443 | -76.57053 | 2722 ft | 111 kts | 83° |
| 2026-05-07 23:10 | 34.66488 | -76.56612 | 2722 ft | 110 kts | 83° |
| 2026-05-07 23:11 | 34.66582 | -76.55680 | 2722 ft | 110 kts | 83° |
| 2026-05-07 23:11 | 34.66676 | -76.54758 | 2722 ft | 110 kts | 83° |
| 2026-05-07 23:11 | 34.66770 | -76.53835 | 2722 ft | 110 kts | 83° |
| 2026-05-07 23:11 | 34.66864 | -76.52917 | 2722 ft | 110 kts | 83° |
| 2026-05-07 23:12 | 34.66974 | -76.51994 | 2722 ft | 110 kts | 78° |
| 2026-05-07 23:12 | 34.67190 | -76.51104 | 2722 ft | 110 kts | 68° |
| 2026-05-07 23:12 | 34.67595 | -76.50309 | 2723 ft | 110 kts | 54° |
| 2026-05-07 23:12 | 34.68047 | -76.49551 | 2722 ft | 111 kts | 54° |
| 2026-05-07 23:13 | 34.68332 | -76.49078 | 2722 ft | 111 kts | 53° |
| 2026-05-07 23:13 | 34.68413 | -76.48943 | 2722 ft | 111 kts | 53° |
| 2026-05-07 23:13 | 34.68775 | -76.48344 | 2722 ft | 111 kts | 53° |
| 2026-05-07 23:13 | 34.69233 | -76.47591 | 2722 ft | 111 kts | 52° |
| 2026-05-07 23:14 | 34.69774 | -76.46928 | 2723 ft | 111 kts | 40° |
| 2026-05-07 23:14 | 34.70359 | -76.46328 | 2788 ft | 110 kts | 39° |
| 2026-05-07 23:14 | 34.70953 | -76.45727 | 2917 ft | 112 kts | 39° |
| 2026-05-07 23:14 | 34.71557 | -76.45113 | 3045 ft | 114 kts | 39° |
| 2026-05-07 23:15 | 34.72169 | -76.44493 | 3173 ft | 115 kts | 39° |
| 2026-05-07 23:15 | 34.72790 | -76.43862 | 3299 ft | 116 kts | 39° |
| 2026-05-07 23:15 | 34.73425 | -76.43218 | 3305 ft | 119 kts | 39° |
| 2026-05-07 23:15 | 34.74059 | -76.42574 | 3299 ft | 118 kts | 39° |
| 2026-05-07 23:16 | 34.74693 | -76.41929 | 3299 ft | 117 kts | 39° |
| 2026-05-07 23:16 | 34.75332 | -76.41309 | 3299 ft | 117 kts | 38° |
| 2026-05-07 23:16 | 34.75967 | -76.40708 | 3299 ft | 116 kts | 38° |
| 2026-05-07 23:16 | 34.76607 | -76.40102 | 3299 ft | 116 kts | 38° |
| 2026-05-07 23:17 | 34.77241 | -76.39505 | 3300 ft | 115 kts | 37° |
| 2026-05-07 23:17 | 34.77880 | -76.38901 | 3299 ft | 115 kts | 38° |
| 2026-05-07 23:17 | 34.78512 | -76.38305 | 3299 ft | 115 kts | 37° |
| 2026-05-07 23:17 | 34.79148 | -76.37704 | 3299 ft | 115 kts | 37° |
| 2026-05-07 23:18 | 34.79775 | -76.37113 | 3300 ft | 115 kts | 38° |
| 2026-05-07 23:18 | 34.80415 | -76.36510 | 3300 ft | 115 kts | 37° |
| 2026-05-07 23:18 | 34.81047 | -76.35913 | 3299 ft | 115 kts | 37° |
| 2026-05-07 23:18 | 34.81682 | -76.35314 | 3299 ft | 115 kts | 37° |
| 2026-05-07 23:19 | 34.82315 | -76.34718 | 3299 ft | 115 kts | 38° |
| 2026-05-07 23:19 | 34.82950 | -76.34121 | 3299 ft | 115 kts | 38° |
| 2026-05-07 23:19 | 34.83587 | -76.33522 | 3300 ft | 115 kts | 38° |
| 2026-05-07 23:19 | 34.84215 | -76.32931 | 3299 ft | 115 kts | 38° |
| 2026-05-07 23:20 | 34.84851 | -76.32333 | 3300 ft | 115 kts | 38° |
| 2026-05-07 23:20 | 34.85463 | -76.31696 | 3299 ft | 115 kts | 41° |
| 2026-05-07 23:20 | 34.86061 | -76.31050 | 3299 ft | 115 kts | 42° |
| 2026-05-07 23:20 | 34.86642 | -76.30399 | 3299 ft | 114 kts | 46° |
| 2026-05-07 23:21 | 34.87166 | -76.29668 | 3298 ft | 114 kts | 54° |
| 2026-05-07 23:21 | 34.87628 | -76.28867 | 3299 ft | 114 kts | 56° |
| 2026-05-07 23:21 | 34.88074 | -76.28079 | 3299 ft | 114 kts | 56° |
| 2026-05-07 23:21 | 34.88529 | -76.27275 | 3299 ft | 114 kts | 56° |
| 2026-05-07 23:22 | 34.88981 | -76.26477 | 3300 ft | 114 kts | 56° |
| 2026-05-07 23:22 | 34.89429 | -76.25684 | 3299 ft | 114 kts | 56° |
| 2026-05-07 23:22 | 34.89883 | -76.24886 | 3300 ft | 114 kts | 56° |
| 2026-05-07 23:22 | 34.90338 | -76.24084 | 3299 ft | 114 kts | 56° |
| 2026-05-07 23:23 | 34.90808 | -76.23258 | 3299 ft | 114 kts | 56° |
| 2026-05-07 23:23 | 34.91295 | -76.22402 | 3300 ft | 114 kts | 56° |
| 2026-05-07 23:23 | 34.91750 | -76.21603 | 3300 ft | 114 kts | 56° |
| 2026-05-07 23:23 | 34.92223 | -76.20831 | 3300 ft | 114 kts | 53° |
| 2026-05-07 23:24 | 34.92709 | -76.20060 | 3299 ft | 114 kts | 53° |
| 2026-05-07 23:24 | 34.93206 | -76.19275 | 3300 ft | 114 kts | 53° |
| 2026-05-07 23:24 | 34.93691 | -76.18508 | 3300 ft | 114 kts | 53° |
| 2026-05-07 23:24 | 34.94178 | -76.17739 | 3300 ft | 114 kts | 52° |
| 2026-05-07 23:25 | 34.94664 | -76.16975 | 3300 ft | 114 kts | 52° |
| 2026-05-07 23:25 | 34.95152 | -76.16206 | 3300 ft | 114 kts | 52° |
| 2026-05-07 23:25 | 34.95638 | -76.15436 | 3299 ft | 114 kts | 53° |
| 2026-05-07 23:25 | 34.96127 | -76.14666 | 3299 ft | 114 kts | 53° |
| 2026-05-07 23:26 | 34.96628 | -76.13880 | 3300 ft | 114 kts | 52° |
| 2026-05-07 23:26 | 34.97115 | -76.13116 | 3300 ft | 114 kts | 52° |
| 2026-05-07 23:26 | 34.97604 | -76.12345 | 3299 ft | 114 kts | 53° |
| 2026-05-07 23:26 | 34.98094 | -76.11576 | 3299 ft | 114 kts | 53° |
| 2026-05-07 23:27 | 34.99091 | -76.10010 | 3300 ft | 114 kts | 52° |
| 2026-05-07 23:27 | 34.99581 | -76.09238 | 3299 ft | 114 kts | 53° |
| 2026-05-07 23:27 | 35.00071 | -76.08467 | 3300 ft | 114 kts | 52° |
| 2026-05-07 23:28 | 35.00557 | -76.07703 | 3300 ft | 114 kts | 52° |
| 2026-05-07 23:28 | 35.01047 | -76.06932 | 3299 ft | 115 kts | 52° |
| 2026-05-07 23:28 | 35.01541 | -76.06155 | 3300 ft | 114 kts | 52° |
| 2026-05-07 23:28 | 35.02026 | -76.05393 | 3300 ft | 114 kts | 52° |
| 2026-05-07 23:29 | 35.02517 | -76.04618 | 3299 ft | 115 kts | 52° |
| 2026-05-07 23:29 | 35.03009 | -76.03848 | 3300 ft | 115 kts | 52° |
| 2026-05-07 23:29 | 35.03496 | -76.03082 | 3300 ft | 115 kts | 52° |
| 2026-05-07 23:29 | 35.03989 | -76.02306 | 3299 ft | 115 kts | 52° |
| 2026-05-07 23:30 | 35.04472 | -76.01536 | 3300 ft | 115 kts | 53° |
| 2026-05-07 23:30 | 35.04950 | -76.00758 | 3299 ft | 115 kts | 53° |
| 2026-05-07 23:30 | 35.05429 | -75.99979 | 3300 ft | 115 kts | 53° |
| 2026-05-07 23:30 | 35.05909 | -75.99197 | 3300 ft | 115 kts | 53° |
| 2026-05-07 23:31 | 35.06389 | -75.98416 | 3300 ft | 115 kts | 53° |
| 2026-05-07 23:31 | 35.06872 | -75.97630 | 3300 ft | 115 kts | 53° |
| 2026-05-07 23:31 | 35.07348 | -75.96854 | 3300 ft | 115 kts | 53° |
| 2026-05-07 23:31 | 35.07700 | -75.96281 | 3300 ft | 115 kts | 53° |
| 2026-05-07 23:32 | 35.07962 | -75.95856 | 3300 ft | 114 kts | 53° |
| 2026-05-07 23:32 | 35.08447 | -75.95068 | 3300 ft | 114 kts | 53° |
| 2026-05-07 23:32 | 35.08926 | -75.94291 | 3300 ft | 114 kts | 53° |
| 2026-05-07 23:33 | 35.09403 | -75.93517 | 3300 ft | 114 kts | 53° |
| 2026-05-07 23:33 | 35.09879 | -75.92746 | 3300 ft | 114 kts | 53° |
| 2026-05-07 23:33 | 35.10361 | -75.91966 | 3299 ft | 114 kts | 53° |
| 2026-05-07 23:33 | 35.10840 | -75.91196 | 3299 ft | 114 kts | 53° |
| 2026-05-07 23:34 | 35.11300 | -75.90399 | 3296 ft | 114 kts | 60° |
| 2026-05-07 23:34 | 35.11678 | -75.89563 | 3298 ft | 113 kts | 62° |
| 2026-05-07 23:34 | 35.12053 | -75.88711 | 3299 ft | 113 kts | 62° |
| 2026-05-07 23:34 | 35.12429 | -75.87860 | 3299 ft | 113 kts | 62° |
| 2026-05-07 23:35 | 35.12804 | -75.87007 | 3299 ft | 113 kts | 62° |
| 2026-05-07 23:35 | 35.13179 | -75.86167 | 3299 ft | 113 kts | 62° |
| 2026-05-07 23:35 | 35.13555 | -75.85314 | 3299 ft | 113 kts | 62° |
| 2026-05-07 23:35 | 35.13932 | -75.84465 | 3299 ft | 113 kts | 62° |
| 2026-05-07 23:36 | 35.14308 | -75.83617 | 3299 ft | 113 kts | 62° |
| 2026-05-07 23:36 | 35.14684 | -75.82766 | 3298 ft | 113 kts | 63° |
| 2026-05-07 23:36 | 35.14992 | -75.81893 | 3299 ft | 113 kts | 69° |
| 2026-05-07 23:36 | 35.15286 | -75.80993 | 3299 ft | 113 kts | 69° |
| 2026-05-07 23:37 | 35.15570 | -75.80100 | 3299 ft | 113 kts | 69° |
| 2026-05-07 23:37 | 35.15860 | -75.79208 | 3299 ft | 113 kts | 69° |
| 2026-05-07 23:37 | 35.16150 | -75.78306 | 3299 ft | 113 kts | 69° |
| 2026-05-07 23:37 | 35.16437 | -75.77415 | 3299 ft | 113 kts | 69° |
| 2026-05-07 23:38 | 35.16728 | -75.76519 | 3299 ft | 113 kts | 69° |
| 2026-05-07 23:38 | 35.17014 | -75.75629 | 3299 ft | 113 kts | 69° |
| 2026-05-07 23:38 | 35.17302 | -75.74730 | 3299 ft | 113 kts | 69° |
| 2026-05-07 23:38 | 35.17592 | -75.73833 | 3299 ft | 113 kts | 69° |
| 2026-05-07 23:39 | 35.17885 | -75.72932 | 3299 ft | 113 kts | 69° |
| 2026-05-07 23:39 | 35.18174 | -75.72044 | 3299 ft | 113 kts | 69° |
| 2026-05-07 23:39 | 35.18465 | -75.71143 | 3299 ft | 113 kts | 69° |
| 2026-05-07 23:39 | 35.18754 | -75.70252 | 3299 ft | 113 kts | 69° |
| 2026-05-07 23:40 | 35.19046 | -75.69354 | 3299 ft | 113 kts | 69° |
| 2026-05-07 23:40 | 35.19336 | -75.68465 | 3299 ft | 113 kts | 69° |
| 2026-05-07 23:40 | 35.19628 | -75.67565 | 3299 ft | 113 kts | 69° |
| 2026-05-07 23:40 | 35.19921 | -75.66670 | 3299 ft | 113 kts | 69° |
| 2026-05-07 23:41 | 35.20213 | -75.65773 | 3299 ft | 113 kts | 69° |
| 2026-05-07 23:41 | 35.20530 | -75.64898 | 3300 ft | 113 kts | 61° |
| 2026-05-07 23:41 | 35.20929 | -75.64054 | 3299 ft | 113 kts | 60° |
| 2026-05-07 23:41 | 35.21328 | -75.63232 | 3299 ft | 113 kts | 59° |
| 2026-05-07 23:42 | 35.21735 | -75.62389 | 3299 ft | 114 kts | 60° |
| 2026-05-07 23:42 | 35.22139 | -75.61561 | 3299 ft | 114 kts | 59° |
| 2026-05-07 23:42 | 35.22541 | -75.60735 | 3299 ft | 114 kts | 59° |
| 2026-05-07 23:42 | 35.22949 | -75.59895 | 3299 ft | 114 kts | 59° |
| 2026-05-07 23:43 | 35.23352 | -75.59068 | 3299 ft | 114 kts | 59° |
| 2026-05-07 23:43 | 35.23758 | -75.58230 | 3299 ft | 114 kts | 59° |
| 2026-05-07 23:43 | 35.24175 | -75.57404 | 3299 ft | 114 kts | 54° |
| 2026-05-07 23:43 | 35.24714 | -75.56699 | 3300 ft | 114 kts | 43° |
| 2026-05-07 23:44 | 35.25313 | -75.56046 | 3299 ft | 114 kts | 41° |
| 2026-05-07 23:44 | 35.25912 | -75.55399 | 3299 ft | 115 kts | 41° |
| 2026-05-07 23:44 | 35.26511 | -75.54756 | 3299 ft | 115 kts | 41° |
| 2026-05-07 23:44 | 35.27107 | -75.54115 | 3299 ft | 115 kts | 41° |
| 2026-05-07 23:45 | 35.27710 | -75.53464 | 3299 ft | 114 kts | 41° |
| 2026-05-07 23:45 | 35.28311 | -75.52814 | 3299 ft | 114 kts | 41° |
| 2026-05-07 23:45 | 35.28906 | -75.52171 | 3299 ft | 114 kts | 41° |
| 2026-05-07 23:45 | 35.29509 | -75.51523 | 3299 ft | 114 kts | 41° |
| 2026-05-07 23:46 | 35.30104 | -75.50884 | 3299 ft | 114 kts | 41° |
| 2026-05-07 23:46 | 35.30731 | -75.50263 | 3299 ft | 115 kts | 33° |
| 2026-05-07 23:46 | 35.31464 | -75.49867 | 3299 ft | 115 kts | 15° |
| 2026-05-07 23:46 | 35.32241 | -75.49648 | 3299 ft | 115 kts | 11° |
| 2026-05-07 23:47 | 35.33028 | -75.49445 | 3299 ft | 115 kts | 11° |
| 2026-05-07 23:47 | 35.33814 | -75.49244 | 3299 ft | 115 kts | 11° |
| 2026-05-07 23:47 | 35.34602 | -75.49043 | 3299 ft | 115 kts | 11° |
| 2026-05-07 23:47 | 35.35389 | -75.48841 | 3299 ft | 115 kts | 11° |
| 2026-05-07 23:48 | 35.36180 | -75.48640 | 3300 ft | 115 kts | 11° |
| 2026-05-07 23:48 | 35.36961 | -75.48440 | 3299 ft | 115 kts | 11° |
| 2026-05-07 23:48 | 35.37755 | -75.48238 | 3299 ft | 115 kts | 11° |
| 2026-05-07 23:48 | 35.38540 | -75.48038 | 3299 ft | 115 kts | 11° |
| 2026-05-07 23:49 | 35.39329 | -75.47838 | 3299 ft | 115 kts | 11° |
| 2026-05-07 23:49 | 35.40114 | -75.47639 | 3299 ft | 115 kts | 11° |
| 2026-05-07 23:49 | 35.40904 | -75.47438 | 3299 ft | 115 kts | 11° |
| 2026-05-07 23:49 | 35.41700 | -75.47235 | 3299 ft | 115 kts | 11° |
| 2026-05-07 23:50 | 35.42489 | -75.47034 | 3299 ft | 115 kts | 11° |
| 2026-05-07 23:50 | 35.43268 | -75.46835 | 3299 ft | 115 kts | 11° |
| 2026-05-07 23:50 | 35.44057 | -75.46635 | 3299 ft | 115 kts | 11° |
| 2026-05-07 23:50 | 35.44850 | -75.46434 | 3299 ft | 115 kts | 11° |
| 2026-05-07 23:51 | 35.45633 | -75.46236 | 3299 ft | 115 kts | 11° |
| 2026-05-07 23:51 | 35.46426 | -75.46035 | 3299 ft | 115 kts | 11° |
| 2026-05-07 23:51 | 35.47219 | -75.45835 | 3299 ft | 115 kts | 11° |
| 2026-05-07 23:51 | 35.48007 | -75.45685 | 3299 ft | 115 kts | 7° |
| 2026-05-07 23:52 | 35.48810 | -75.45549 | 3299 ft | 115 kts | 7° |
| 2026-05-07 23:52 | 35.49607 | -75.45417 | 3300 ft | 115 kts | 7° |
| 2026-05-07 23:52 | 35.50404 | -75.45284 | 3300 ft | 115 kts | 7° |
| 2026-05-07 23:52 | 35.51207 | -75.45150 | 3299 ft | 115 kts | 7° |
| 2026-05-07 23:53 | 35.52006 | -75.45016 | 3299 ft | 115 kts | 7° |
| 2026-05-07 23:53 | 35.52797 | -75.44885 | 3299 ft | 115 kts | 7° |
| 2026-05-07 23:53 | 35.53599 | -75.44802 | 3300 ft | 115 kts | 360° |
| 2026-05-07 23:53 | 35.54403 | -75.44837 | 3299 ft | 115 kts | 356° |
| 2026-05-07 23:54 | 35.55215 | -75.44890 | 3299 ft | 116 kts | 356° |
| 2026-05-07 23:54 | 35.56018 | -75.44943 | 3299 ft | 115 kts | 356° |
| 2026-05-07 23:54 | 35.56828 | -75.44996 | 3299 ft | 115 kts | 356° |
| 2026-05-07 23:54 | 35.57630 | -75.45049 | 3299 ft | 116 kts | 356° |
| 2026-05-07 23:55 | 35.58430 | -75.45101 | 3299 ft | 116 kts | 356° |
| 2026-05-07 23:55 | 35.59242 | -75.45155 | 3299 ft | 116 kts | 356° |
| 2026-05-07 23:55 | 35.60045 | -75.45208 | 3299 ft | 116 kts | 356° |
| 2026-05-07 23:55 | 35.60857 | -75.45261 | 3300 ft | 116 kts | 356° |
| 2026-05-07 23:56 | 35.61653 | -75.45347 | 3300 ft | 115 kts | 351° |
| 2026-05-07 23:56 | 35.62452 | -75.45496 | 3299 ft | 115 kts | 350° |
| 2026-05-07 23:56 | 35.63256 | -75.45651 | 3299 ft | 116 kts | 350° |
| 2026-05-07 23:56 | 35.64051 | -75.45805 | 3299 ft | 116 kts | 350° |
| 2026-05-07 23:57 | 35.64846 | -75.45958 | 3299 ft | 115 kts | 350° |
| 2026-05-07 23:57 | 35.65690 | -75.46121 | 3300 ft | 115 kts | 350° |
| 2026-05-07 23:57 | 35.66497 | -75.46295 | 3300 ft | 115 kts | 347° |
| 2026-05-07 23:57 | 35.67285 | -75.46497 | 3299 ft | 115 kts | 347° |
| 2026-05-07 23:58 | 35.68071 | -75.46700 | 3299 ft | 116 kts | 347° |
| 2026-05-07 23:58 | 35.68860 | -75.46905 | 3299 ft | 115 kts | 347° |
| 2026-05-07 23:58 | 35.69638 | -75.47143 | 3300 ft | 115 kts | 343° |
| 2026-05-07 23:58 | 35.70420 | -75.47414 | 3299 ft | 115 kts | 343° |
| 2026-05-07 23:59 | 35.71189 | -75.47682 | 3300 ft | 115 kts | 343° |
| 2026-05-07 23:59 | 35.71966 | -75.47986 | 3300 ft | 115 kts | 339° |
| 2026-05-07 23:59 | 35.72715 | -75.48315 | 3299 ft | 115 kts | 339° |
| 2026-05-07 23:59 | 35.73474 | -75.48654 | 3300 ft | 115 kts | 337° |
| 2026-05-08 00:00 | 35.74213 | -75.49058 | 3300 ft | 115 kts | 334° |
| 2026-05-08 00:00 | 35.74944 | -75.49469 | 3300 ft | 115 kts | 334° |
| 2026-05-08 00:00 | 35.75676 | -75.49883 | 3300 ft | 115 kts | 334° |
| 2026-05-08 00:00 | 35.76411 | -75.50299 | 3300 ft | 115 kts | 334° |
| 2026-05-08 00:01 | 35.77138 | -75.50710 | 3300 ft | 115 kts | 334° |
| 2026-05-08 00:01 | 35.77873 | -75.51126 | 3300 ft | 115 kts | 334° |
| 2026-05-08 00:01 | 35.78608 | -75.51542 | 3300 ft | 115 kts | 334° |
| 2026-05-08 00:01 | 35.79336 | -75.51955 | 3293 ft | 116 kts | 334° |
| 2026-05-08 00:02 | 35.80084 | -75.52377 | 3166 ft | 118 kts | 334° |
| 2026-05-08 00:02 | 35.80829 | -75.52800 | 3040 ft | 118 kts | 334° |
| 2026-05-08 00:02 | 35.81573 | -75.53222 | 2914 ft | 118 kts | 334° |
| 2026-05-08 00:02 | 35.82315 | -75.53644 | 2788 ft | 117 kts | 334° |
| 2026-05-08 00:03 | 35.83065 | -75.54070 | 2660 ft | 117 kts | 334° |
| 2026-05-08 00:03 | 35.83801 | -75.54490 | 2535 ft | 117 kts | 334° |
| 2026-05-08 00:03 | 35.84533 | -75.54906 | 2456 ft | 114 kts | 334° |
| 2026-05-08 00:03 | 35.85251 | -75.55315 | 2378 ft | 112 kts | 334° |
| 2026-05-08 00:04 | 35.85950 | -75.55714 | 2301 ft | 110 kts | 334° |
| 2026-05-08 00:04 | 35.86652 | -75.56113 | 2224 ft | 110 kts | 334° |
| 2026-05-08 00:04 | 35.87351 | -75.56512 | 2148 ft | 111 kts | 333° |
| 2026-05-08 00:04 | 35.88049 | -75.56926 | 2074 ft | 112 kts | 333° |
| 2026-05-08 00:05 | 35.88750 | -75.57343 | 2000 ft | 113 kts | 333° |
| 2026-05-08 00:05 | 35.89463 | -75.57774 | 1925 ft | 113 kts | 331° |
| 2026-05-08 00:05 | 35.90156 | -75.58252 | 1849 ft | 113 kts | 329° |
| 2026-05-08 00:05 | 35.90839 | -75.58733 | 1778 ft | 113 kts | 329° |
| 2026-05-08 00:06 | 35.91505 | -75.59204 | 1787 ft | 108 kts | 328° |
| 2026-05-08 00:06 | 35.92157 | -75.59665 | 1789 ft | 105 kts | 328° |
| 2026-05-08 00:06 | 35.92781 | -75.60115 | 1790 ft | 103 kts | 326° |
| 2026-05-08 00:06 | 35.93387 | -75.60593 | 1791 ft | 102 kts | 325° |
| 2026-05-08 00:07 | 35.93982 | -75.61066 | 1791 ft | 102 kts | 325° |
| 2026-05-08 00:07 | 35.94575 | -75.61536 | 1791 ft | 101 kts | 325° |
| 2026-05-08 00:07 | 35.95169 | -75.62004 | 1790 ft | 101 kts | 327° |
| 2026-05-08 00:07 | 35.95802 | -75.62398 | 1790 ft | 101 kts | 333° |
| 2026-05-08 00:08 | 35.96458 | -75.62764 | 1794 ft | 106 kts | 334° |
| 2026-05-08 00:08 | 35.97150 | -75.63144 | 1794 ft | 110 kts | 334° |
| 2026-05-08 00:08 | 35.97859 | -75.63532 | 1794 ft | 113 kts | 334° |
| 2026-05-08 00:08 | 35.98592 | -75.63934 | 1793 ft | 115 kts | 335° |
| 2026-05-08 00:09 | 35.99328 | -75.64337 | 1792 ft | 116 kts | 335° |
| 2026-05-08 00:09 | 36.00037 | -75.64832 | 1793 ft | 117 kts | 324° |
| 2026-05-08 00:09 | 36.00647 | -75.65495 | 1792 ft | 116 kts | 311° |
| 2026-05-08 00:09 | 36.01136 | -75.66286 | 1792 ft | 116 kts | 302° |
| 2026-05-08 00:10 | 36.01564 | -75.67134 | 1792 ft | 116 kts | 298° |
| 2026-05-08 00:10 | 36.01964 | -75.67996 | 1792 ft | 116 kts | 297° |
| 2026-05-08 00:10 | 36.02366 | -75.68867 | 1791 ft | 115 kts | 298° |
| 2026-05-08 00:10 | 36.02755 | -75.69709 | 1789 ft | 111 kts | 297° |
| 2026-05-08 00:11 | 36.03132 | -75.70522 | 1788 ft | 108 kts | 297° |
| 2026-05-08 00:11 | 36.03553 | -75.71278 | 1717 ft | 109 kts | 310° |
| 2026-05-08 00:11 | 36.04191 | -75.71819 | 1562 ft | 114 kts | 338° |
| 2026-05-08 00:11 | 36.04974 | -75.71854 | 1424 ft | 113 kts | 15° |
| 2026-05-08 00:12 | 36.05572 | -75.71304 | 1297 ft | 109 kts | 62° |
| 2026-05-08 00:12 | 36.05637 | -75.70390 | 1124 ft | 108 kts | 102° |
| 2026-05-08 00:12 | 36.05379 | -75.69514 | 967 ft | 107 kts | 123° |
| 2026-05-08 00:12 | 36.04840 | -75.68980 | 908 ft | 99 kts | 156° |
| 2026-05-08 00:13 | 36.04210 | -75.68688 | 886 ft | 93 kts | 159° |
| 2026-05-08 00:13 | 36.03593 | -75.68406 | 830 ft | 93 kts | 159° |
| 2026-05-08 00:13 | 36.02974 | -75.68195 | 798 ft | 91 kts | 174° |
| 2026-05-08 00:13 | 36.02368 | -75.68329 | 804 ft | 85 kts | 199° |
| 2026-05-08 00:14 | 36.01821 | -75.68581 | 836 ft | 82 kts | 197° |
| 2026-05-08 00:14 | 36.01272 | -75.68825 | 849 ft | 84 kts | 199° |
| 2026-05-08 00:14 | 36.00740 | -75.69124 | 810 ft | 84 kts | 202° |
| 2026-05-08 00:14 | 36.00184 | -75.69340 | 722 ft | 83 kts | 180° |
| 2026-05-08 00:15 | 35.99645 | -75.69158 | 653 ft | 81 kts | 144° |
| 2026-05-08 00:15 | 35.99407 | -75.68555 | 574 ft | 79 kts | 90° |
| 2026-05-08 00:15 | 35.99672 | -75.67968 | 458 ft | 82 kts | 41° |
| 2026-05-08 00:15 | 36.00180 | -75.67663 | 373 ft | 80 kts | 16° |
| 2026-05-08 00:16 | 36.00708 | -75.67499 | 235 ft | 75 kts | 12° |
| 2026-05-08 00:16 | 36.01207 | -75.67342 | 86 ft | 74 kts | 14° |
| 2026-05-08 00:16 | 36.01678 | -75.67186 | 10 ft | 57 kts | 18° |
| 2026-05-08 00:16 | 36.01927 | -75.67097 | 9 ft | 19 kts | 17° |
| 2026-05-08 00:17 | 36.01969 | -75.67098 | 9 ft | 5 kts | 224° |
| 2026-05-08 00:17 | 36.01913 | -75.67111 | 9 ft | 13 kts | 191° |
| 2026-05-08 00:17 | 36.01807 | -75.67149 | 9 ft | 15 kts | 195° |
| 2026-05-08 00:17 | 36.01693 | -75.67184 | 10 ft | 18 kts | 196° |
| 2026-05-08 00:18 | 36.01573 | -75.67226 | 10 ft | 16 kts | 194° |
| 2026-05-08 00:18 | 36.01485 | -75.67242 | 10 ft | 8 kts | 164° |
| 2026-05-08 00:18 | 36.01463 | -75.67196 | 10 ft | 6 kts | 106° |
| 2026-05-08 00:18 | 36.01454 | -75.67172 | 11 ft | 3 kts | 131° |
| 2026-05-08 00:19 | 36.01440 | -75.67169 | 11 ft | 0 kts | 201° |